Time;durP1;ratioP1;P1;durP2;ratioP2;P2;SDS_P1;SDS_P2;PMS_P1;PMS_P2;Temp;Humidity;BMP_temperature;BMP_pressure;BME280_temperature;BME280_humidity;BME280_pressure;Samples;Min_cycle;Max_cycle;Signal;HPM_P1;HPM_P2
2021/09/19 00:02:00;;;;;;;11.80;7.70;;;15.20;99.90;;;;;;4940976;29;20031;-86
2021/09/19 00:04:26;;;;;;;15.93;8.35;;;15.20;99.90;;;;;;4923370;29;20059;-87
2021/09/19 00:06:52;;;;;;;11.30;6.88;;;15.20;99.90;;;;;;4939439;29;20020;-87
2021/09/19 00:09:17;;;;;;;12.95;7.80;;;15.20;99.90;;;;;;4922201;29;20035;-87
2021/09/19 00:11:44;;;;;;;9.80;6.65;;;15.20;99.90;;;;;;4939656;29;20386;-87
2021/09/19 00:14:14;;;;;;;11.90;7.20;;;15.10;99.90;;;;;;4922327;29;20063;-86
2021/09/19 00:16:41;;;;;;;10.47;7.67;;;15.00;99.90;;;;;;4921830;29;20024;-87
2021/09/19 00:19:07;;;;;;;12.25;6.82;;;15.00;99.90;;;;;;4938969;29;20407;-87
2021/09/19 00:21:33;;;;;;;8.80;6.45;;;15.00;99.90;;;;;;4938115;29;20048;-86
2021/09/19 00:23:59;;;;;;;12.55;6.72;;;15.00;99.90;;;;;;4937592;29;20040;-87
2021/09/19 00:26:25;;;;;;;8.52;5.82;;;15.00;99.90;;;;;;4921085;29;20054;-87
2021/09/19 00:28:51;;;;;;;10.25;6.55;;;15.00;99.90;;;;;;4924374;29;20019;-87
2021/09/19 00:31:17;;;;;;;10.48;5.70;;;15.00;99.90;;;;;;4924063;29;20068;-87
2021/09/19 00:33:42;;;;;;;11.60;6.55;;;15.00;99.90;;;;;;4924052;29;20019;-87
2021/09/19 00:36:08;;;;;;;10.27;6.55;;;15.00;99.90;;;;;;4923636;29;20031;-86
2021/09/19 00:38:33;;;;;;;9.80;6.65;;;15.00;99.90;;;;;;4939451;29;20051;-86
2021/09/19 00:41:00;;;;;;;13.38;6.63;;;15.00;99.90;;;;;;4938780;29;20067;-87
2021/09/19 00:43:26;;;;;;;13.80;7.28;;;15.00;99.90;;;;;;4921512;29;20055;-86
2021/09/19 00:45:51;;;;;;;14.98;8.02;;;15.00;99.90;;;;;;4921556;29;20066;-86
2021/09/19 00:48:17;;;;;;;13.13;7.18;;;15.00;99.90;;;;;;4920913;29;20087;-87
2021/09/19 00:50:43;;;;;;;13.88;7.28;;;15.00;99.90;;;;;;4921680;29;20028;-87
2021/09/19 00:53:11;;;;;;;12.77;7.28;;;14.90;99.90;;;;;;4921666;29;20031;-86
2021/09/19 00:55:38;;;;;;;10.77;6.55;;;14.90;99.90;;;;;;4921474;29;20055;-86
2021/09/19 00:58:10;;;;;;;8.68;5.88;;;14.90;99.90;;;;;;4921255;29;20086;-86
2021/09/19 01:00:38;;;;;;;9.65;6.07;;;14.80;99.90;;;;;;4938487;29;20367;-86
2021/09/19 01:03:04;;;;;;;14.77;6.82;;;14.90;99.90;;;;;;4940043;29;20095;-85
2021/09/19 01:05:30;;;;;;;9.77;6.57;;;14.80;99.90;;;;;;4938746;29;20070;-87
2021/09/19 01:07:58;;;;;;;10.00;6.60;;;14.90;99.90;;;;;;4938801;29;20056;-86
2021/09/19 01:10:26;;;;;;;11.30;7.25;;;14.80;99.90;;;;;;4922209;29;20152;-86
2021/09/19 01:12:54;;;;;;;8.30;6.20;;;14.80;99.90;;;;;;4921689;29;20031;-87
2021/09/19 01:15:21;;;;;;;7.97;6.38;;;14.80;99.90;;;;;;4920756;29;20028;-86
2021/09/19 01:17:48;;;;;;;9.93;7.25;;;14.80;99.90;;;;;;4921319;29;20413;-86
2021/09/19 01:20:14;;;;;;;10.77;6.35;;;14.70;99.90;;;;;;4921542;29;20032;-84
2021/09/19 01:22:56;;;;;;;10.30;7.35;;;14.70;99.90;;;;;;4920855;29;20050;-84
2021/09/19 01:25:22;;;;;;;10.70;7.57;;;14.70;99.90;;;;;;4919256;29;20100;-84
2021/09/19 01:27:47;;;;;;;11.88;7.68;;;14.60;99.90;;;;;;4938023;29;20637;-84
2021/09/19 01:30:14;;;;;;;11.20;6.82;;;14.60;99.90;;;;;;4920791;29;20400;-84
2021/09/19 01:32:41;;;;;;;10.57;6.82;;;14.50;99.90;;;;;;4920499;29;20024;-84
2021/09/19 01:35:09;;;;;;;11.60;6.15;;;14.50;99.90;;;;;;4937874;29;20474;-85
2021/09/19 01:37:34;;;;;;;11.55;7.00;;;14.40;99.90;;;;;;4934362;29;20023;-85
2021/09/19 01:40:00;;;;;;;9.25;6.97;;;14.50;99.90;;;;;;4919645;29;20047;-84
2021/09/19 01:42:27;;;;;;;14.32;8.75;;;14.50;99.90;;;;;;4937413;29;20027;-86
2021/09/19 01:44:53;;;;;;;11.70;8.20;;;14.50;99.90;;;;;;4919814;29;20117;-86
2021/09/19 01:47:18;;;;;;;14.23;8.43;;;14.50;99.90;;;;;;4920017;29;20032;-86
2021/09/19 01:49:46;;;;;;;15.48;8.10;;;14.40;99.90;;;;;;4919904;29;20610;-86
2021/09/19 01:52:12;;;;;;;13.45;7.97;;;14.40;99.90;;;;;;4919777;29;20031;-86
2021/09/19 01:54:38;;;;;;;13.10;8.60;;;14.30;99.90;;;;;;4920073;29;20024;-86
2021/09/19 01:57:04;;;;;;;13.38;7.90;;;14.30;99.90;;;;;;4920210;29;20366;-86
2021/09/19 01:59:29;;;;;;;12.57;7.30;;;14.20;99.90;;;;;;4919781;29;20112;-86
2021/09/19 02:01:55;;;;;;;12.73;7.53;;;14.20;99.90;;;;;;4920618;29;20027;-86
2021/09/19 02:04:21;;;;;;;14.00;8.10;;;14.10;99.90;;;;;;4920262;29;20465;-86
2021/09/19 02:06:47;;;;;;;11.65;7.53;;;14.00;99.90;;;;;;4937304;29;20059;-86
2021/09/19 02:09:12;;;;;;;9.00;7.05;;;13.90;99.90;;;;;;4920652;29;20425;-86
2021/09/19 02:11:38;;;;;;;12.75;7.32;;;13.80;99.90;;;;;;4937527;29;20418;-86
2021/09/19 02:14:04;;;;;;;9.65;6.93;;;13.80;99.90;;;;;;4939477;29;20047;-87
2021/09/19 02:16:30;;;;;;;10.60;7.72;;;13.90;99.90;;;;;;4940461;29;20028;-86
2021/09/19 02:18:56;;;;;;;10.30;7.35;;;13.90;99.90;;;;;;4940280;29;20090;-86
2021/09/19 02:21:23;;;;;;;13.18;7.80;;;13.90;99.90;;;;;;4938949;29;20028;-85
2021/09/19 02:23:49;;;;;;;14.52;8.13;;;13.90;99.90;;;;;;4921954;29;20043;-87
2021/09/19 02:26:15;;;;;;;11.98;7.25;;;13.90;99.90;;;;;;4931855;29;20020;-86
2021/09/19 02:28:40;;;;;;;11.43;8.23;;;13.90;99.90;;;;;;4943650;29;20027;-85
2021/09/19 02:31:07;;;;;;;14.20;8.02;;;13.90;99.90;;;;;;4960825;29;20510;-85
2021/09/19 02:33:33;;;;;;;12.93;8.32;;;13.90;99.90;;;;;;4956017;29;20028;-85
2021/09/19 02:35:59;;;;;;;14.07;8.73;;;13.90;99.90;;;;;;4942432;29;20091;-85
2021/09/19 02:38:25;;;;;;;13.30;9.55;;;14.00;99.90;;;;;;4954575;29;20047;-85
2021/09/19 02:40:52;;;;;;;20.15;14.65;;;14.00;99.90;;;;;;4945003;29;20038;-85
2021/09/19 02:43:19;;;;;;;19.65;11.85;;;14.00;99.90;;;;;;4925260;29;20063;-85
2021/09/19 02:45:45;;;;;;;15.30;10.82;;;14.00;99.90;;;;;;4924788;29;20035;-85
2021/09/19 02:48:11;;;;;;;17.05;10.63;;;14.00;99.90;;;;;;4941815;29;20023;-86
2021/09/19 02:50:37;;;;;;;14.85;10.15;;;14.00;99.90;;;;;;4942760;29;20035;-86
2021/09/19 02:53:02;;;;;;;17.35;11.10;;;14.00;99.90;;;;;;4925058;29;20020;-85
2021/09/19 02:55:28;;;;;;;19.30;11.73;;;14.00;99.90;;;;;;4924550;29;20118;-84
2021/09/19 02:57:54;;;;;;;18.23;12.73;;;14.00;99.90;;;;;;4923839;29;20056;-85
2021/09/19 03:00:21;;;;;;;26.20;16.85;;;14.10;99.90;;;;;;4941618;29;20091;-86
2021/09/19 03:02:48;;;;;;;21.83;11.95;;;14.10;99.90;;;;;;4941005;29;20034;-85
2021/09/19 03:05:15;;;;;;;17.88;11.07;;;14.10;99.90;;;;;;4909274;29;20060;-86
2021/09/19 03:07:41;;;;;;;17.92;11.23;;;14.10;99.90;;;;;;4924604;29;20807;-86
2021/09/19 03:10:08;;;;;;;19.23;12.18;;;14.10;99.90;;;;;;4925215;29;20144;-86
2021/09/19 03:12:34;;;;;;;17.52;10.95;;;14.10;99.90;;;;;;4941460;29;20028;-86
2021/09/19 03:14:59;;;;;;;22.25;13.88;;;14.10;99.90;;;;;;4924330;29;20023;-86
2021/09/19 03:17:25;;;;;;;17.35;10.82;;;14.00;99.90;;;;;;4924427;29;20038;-86
2021/09/19 03:19:51;;;;;;;22.08;14.85;;;14.00;99.90;;;;;;4924702;29;20436;-86
2021/09/19 03:22:16;;;;;;;24.13;14.55;;;14.00;99.90;;;;;;4941202;29;20019;-86
2021/09/19 03:24:42;;;;;;;25.42;16.42;;;14.00;99.90;;;;;;4922807;29;20120;-85
2021/09/19 03:27:08;;;;;;;26.40;16.63;;;14.00;99.90;;;;;;4922789;29;20036;-86
2021/09/19 03:29:33;;;;;;;23.45;15.70;;;14.10;99.90;;;;;;4922635;29;20032;-85
2021/09/19 03:31:59;;;;;;;20.13;14.15;;;14.10;99.90;;;;;;4922785;29;20097;-85
2021/09/19 03:34:25;;;;;;;20.63;14.27;;;14.10;99.90;;;;;;4923553;29;20050;-86
2021/09/19 03:36:50;;;;;;;27.52;15.02;;;14.20;99.90;;;;;;4923129;29;20063;-85
2021/09/19 03:39:17;;;;;;;25.00;16.45;;;14.20;99.90;;;;;;4921575;29;20119;-85
2021/09/19 03:41:43;;;;;;;21.17;13.32;;;14.30;99.90;;;;;;4906770;29;20478;-85
2021/09/19 03:44:10;;;;;;;22.48;14.63;;;14.30;99.90;;;;;;4940042;29;20024;-85
2021/09/19 03:46:37;;;;;;;19.23;12.52;;;14.30;99.90;;;;;;4922974;29;20043;-85
2021/09/19 03:49:03;;;;;;;19.50;12.38;;;14.20;99.90;;;;;;4923372;29;20020;-85
2021/09/19 03:51:29;;;;;;;19.35;12.10;;;14.20;99.90;;;;;;4923944;29;20031;-85
2021/09/19 03:53:54;;;;;;;16.65;12.15;;;14.20;99.90;;;;;;4924032;29;20142;-84
2021/09/19 03:56:20;;;;;;;21.33;13.35;;;14.20;99.90;;;;;;4921260;29;20039;-85
2021/09/19 03:58:45;;;;;;;18.27;11.98;;;14.30;99.90;;;;;;4919542;29;20051;-85
2021/09/19 04:01:11;;;;;;;22.85;13.05;;;14.30;99.90;;;;;;4919907;29;20672;-85
2021/09/19 04:03:37;;;;;;;33.15;19.20;;;14.30;99.90;;;;;;4918332;29;20032;-85
2021/09/19 04:06:02;;;;;;;20.30;12.73;;;14.30;99.90;;;;;;4918245;29;20421;-85
2021/09/19 04:08:28;;;;;;;18.70;13.73;;;14.30;99.90;;;;;;4917926;29;20095;-85
2021/09/19 04:10:54;;;;;;;20.10;12.35;;;14.40;99.90;;;;;;4917976;29;20034;-85
2021/09/19 04:13:20;;;;;;;20.15;12.02;;;14.30;99.90;;;;;;4918457;29;20430;-85
2021/09/19 04:15:45;;;;;;;18.95;11.70;;;14.30;99.90;;;;;;4939444;29;20036;-84
2021/09/19 04:18:13;;;;;;;22.17;12.48;;;14.30;99.90;;;;;;4922794;29;20437;-85
2021/09/19 04:20:38;;;;;;;17.80;11.65;;;14.30;99.90;;;;;;4923221;29;20426;-85
2021/09/19 04:23:04;;;;;;;18.98;12.00;;;14.30;99.90;;;;;;4923447;29;20070;-85
2021/09/19 04:25:30;;;;;;;15.70;11.23;;;14.40;99.90;;;;;;4923516;29;20495;-85
2021/09/19 04:27:55;;;;;;;19.95;13.57;;;14.40;99.90;;;;;;4922942;29;20020;-85
2021/09/19 04:30:21;;;;;;;16.88;11.70;;;14.40;99.90;;;;;;4940150;29;20478;-85
2021/09/19 04:32:47;;;;;;;18.27;12.07;;;14.40;99.90;;;;;;4940587;29;20039;-85
2021/09/19 04:35:12;;;;;;;18.45;11.82;;;14.40;99.90;;;;;;4923364;29;20477;-85
2021/09/19 04:37:38;;;;;;;15.98;10.98;;;14.40;99.90;;;;;;4941334;29;20040;-85
2021/09/19 04:40:06;;;;;;;21.00;13.38;;;14.40;99.90;;;;;;4929739;29;20086;-85
2021/09/19 04:42:32;;;;;;;20.02;12.98;;;14.40;99.90;;;;;;4934732;29;20079;-85
2021/09/19 04:44:57;;;;;;;18.85;13.30;;;14.40;99.90;;;;;;4936255;29;20051;-84
2021/09/19 04:47:23;;;;;;;21.40;12.50;;;14.40;99.90;;;;;;4934527;29;20510;-85
2021/09/19 04:49:49;;;;;;;18.48;12.02;;;14.40;99.90;;;;;;4944943;29;20043;-85
2021/09/19 04:52:15;;;;;;;17.98;12.80;;;14.50;99.90;;;;;;4927799;29;20035;-86
2021/09/19 04:54:41;;;;;;;23.70;15.10;;;14.40;99.90;;;;;;4923951;29;20043;-85
2021/09/19 04:57:06;;;;;;;25.20;15.90;;;14.50;99.90;;;;;;4923288;29;20039;-86
2021/09/19 04:59:33;;;;;;;25.98;17.42;;;14.50;99.90;;;;;;4922319;29;20056;-85
2021/09/19 05:01:59;;;;;;;26.77;17.00;;;14.50;99.90;;;;;;4922305;29;20108;-85
2021/09/19 05:04:24;;;;;;;25.65;16.73;;;14.60;99.90;;;;;;4922086;29;20023;-85
2021/09/19 05:06:50;;;;;;;25.92;17.52;;;14.60;99.90;;;;;;4921622;29;20106;-85
2021/09/19 05:09:16;;;;;;;28.40;18.33;;;14.70;99.90;;;;;;4938155;29;20762;-85
2021/09/19 05:11:41;;;;;;;22.75;15.38;;;14.60;99.90;;;;;;4938129;29;20060;-85
2021/09/19 05:14:07;;;;;;;25.63;15.05;;;14.60;99.90;;;;;;4919347;29;20083;-85
2021/09/19 05:16:33;;;;;;;21.00;14.65;;;14.50;99.90;;;;;;4921572;29;20079;-85
2021/09/19 05:18:58;;;;;;;20.13;13.32;;;14.50;99.90;;;;;;4939358;29;20028;-85
2021/09/19 05:21:25;;;;;;;20.17;13.77;;;14.50;99.90;;;;;;4923239;29;20039;-85
2021/09/19 05:23:51;;;;;;;21.25;14.23;;;14.50;99.90;;;;;;4940246;29;20074;-84
2021/09/19 05:26:17;;;;;;;17.65;13.00;;;14.50;99.90;;;;;;4939897;29;20023;-85
2021/09/19 05:28:43;;;;;;;20.15;12.55;;;14.40;99.90;;;;;;4923404;29;20098;-85
2021/09/19 05:31:09;;;;;;;13.80;10.45;;;14.40;99.90;;;;;;4923131;29;20142;-85
2021/09/19 05:33:35;;;;;;;10.32;7.03;;;14.40;99.90;;;;;;4923414;29;20038;-85
2021/09/19 05:36:00;;;;;;;7.18;5.15;;;14.40;99.90;;;;;;4922585;29;20032;-85
2021/09/19 05:38:27;;;;;;;7.80;5.43;;;14.40;99.90;;;;;;4921576;29;20030;-85
2021/09/19 05:40:52;;;;;;;9.70;5.28;;;14.40;99.90;;;;;;4919319;29;20449;-85
2021/09/19 05:43:18;;;;;;;8.65;4.07;;;14.40;99.90;;;;;;4920179;29;20024;-84
2021/09/19 05:45:44;;;;;;;8.48;4.22;;;14.40;99.90;;;;;;4919962;29;20032;-86
2021/09/19 05:48:10;;;;;;;6.82;4.50;;;14.30;99.90;;;;;;4919814;29;20394;-86
2021/09/19 05:50:35;;;;;;;6.50;3.95;;;14.30;99.90;;;;;;4937080;29;20055;-87
2021/09/19 05:53:01;;;;;;;7.40;5.10;;;14.30;99.90;;;;;;4920239;29;20406;-87
2021/09/19 05:55:27;;;;;;;8.45;4.30;;;14.20;99.90;;;;;;4921240;29;20502;-87
2021/09/19 05:57:52;;;;;;;5.47;4.35;;;14.20;99.90;;;;;;4922157;29;20103;-87
2021/09/19 06:00:18;;;;;;;8.48;4.88;;;14.20;99.90;;;;;;4920320;29;20051;-85
2021/09/19 06:02:44;;;;;;;4.93;4.28;;;14.20;99.90;;;;;;4922507;29;20020;-86
2021/09/19 06:05:10;;;;;;;4.72;3.35;;;14.20;99.90;;;;;;4941589;29;20047;-87
2021/09/19 06:07:36;;;;;;;7.85;3.47;;;14.20;99.90;;;;;;4929772;29;20027;-86
2021/09/19 06:10:04;;;;;;;5.72;3.33;;;14.10;99.90;;;;;;4944669;29;20037;-88
2021/09/19 06:12:29;;;;;;;7.45;1.83;;;14.10;99.90;;;;;;4941696;29;20043;-87
2021/09/19 06:14:55;;;;;;;4.63;2.13;;;14.10;99.90;;;;;;4932415;29;20032;-87
2021/09/19 06:17:21;;;;;;;7.00;2.08;;;14.00;99.90;;;;;;4954353;29;20028;-87
2021/09/19 06:19:51;;;;;;;3.20;1.60;;;14.00;99.90;;;;;;4943101;29;20055;-87
2021/09/19 06:22:17;;;;;;;3.50;2.07;;;14.00;99.90;;;;;;4924690;29;20056;-86
2021/09/19 06:24:43;;;;;;;9.85;2.25;;;13.90;99.90;;;;;;4923372;29;20279;-87
2021/09/19 06:27:12;;;;;;;8.27;1.60;;;13.90;99.90;;;;;;4939288;29;20071;-87
2021/09/19 06:29:38;;;;;;;5.20;1.70;;;13.90;99.90;;;;;;4922055;29;20586;-87
2021/09/19 06:32:04;;;;;;;7.85;1.50;;;14.00;99.90;;;;;;4939252;29;20063;-85
2021/09/19 06:34:29;;;;;;;3.28;1.15;;;13.90;99.90;;;;;;4938825;29;20126;-87
2021/09/19 06:36:55;;;;;;;5.40;1.52;;;14.00;99.90;;;;;;4922328;29;20028;-85
2021/09/19 06:39:21;;;;;;;5.22;1.60;;;14.00;99.90;;;;;;4938839;29;20076;-87
2021/09/19 06:41:50;;;;;;;4.35;1.55;;;14.00;99.90;;;;;;4922250;29;20512;-86
2021/09/19 06:44:17;;;;;;;7.57;1.67;;;14.10;99.90;;;;;;4938757;29;20027;-87
2021/09/19 06:46:43;;;;;;;6.43;1.55;;;14.10;99.90;;;;;;4921012;29;20039;-84
2021/09/19 06:49:08;;;;;;;2.40;1.40;;;14.10;99.90;;;;;;4922311;29;20031;-86
2021/09/19 06:51:34;;;;;;;3.95;1.15;;;14.10;99.90;;;;;;4921427;29;20074;-87
2021/09/19 06:54:00;;;;;;;4.07;1.90;;;14.10;99.90;;;;;;4938624;29;20431;-87
2021/09/19 06:56:25;;;;;;;5.85;1.88;;;14.20;99.90;;;;;;4924155;29;20394;-87
2021/09/19 06:58:51;;;;;;;1.77;1.30;;;14.20;99.90;;;;;;4923212;29;20076;-86
2021/09/19 07:01:17;;;;;;;5.68;1.58;;;14.30;99.90;;;;;;4920685;29;20100;-86
2021/09/19 07:03:43;;;;;;;6.63;1.38;;;14.30;99.90;;;;;;4936900;29;20027;-87
2021/09/19 07:06:09;;;;;;;3.05;1.40;;;14.30;99.90;;;;;;4920403;29;20387;-86
2021/09/19 07:08:35;;;;;;;5.20;1.40;;;14.30;99.90;;;;;;4919819;29;20027;-86
2021/09/19 07:11:01;;;;;;;3.28;1.40;;;14.30;99.90;;;;;;4920251;29;20070;-86
2021/09/19 07:13:27;;;;;;;7.60;2.30;;;14.30;99.90;;;;;;4936040;29;20398;-87
2021/09/19 07:15:53;;;;;;;4.82;1.45;;;14.30;99.90;;;;;;4937467;29;20024;-87
2021/09/19 07:18:23;;;;;;;4.70;1.10;;;14.30;99.90;;;;;;4941402;29;20037;-87
2021/09/19 07:20:49;;;;;;;2.10;1.35;;;14.30;99.90;;;;;;4924749;29;20035;-86
2021/09/19 07:23:16;;;;;;;2.88;1.40;;;14.30;99.90;;;;;;4932184;29;20026;-86
2021/09/19 07:25:42;;;;;;;8.73;1.30;;;14.30;99.90;;;;;;4941359;28;20123;-86
2021/09/19 07:28:08;;;;;;;4.30;1.25;;;14.30;99.90;;;;;;4937041;29;20474;-86
2021/09/19 07:30:35;;;;;;;5.57;1.38;;;14.30;99.90;;;;;;4920249;29;20087;-87
2021/09/19 07:33:01;;;;;;;3.65;1.30;;;14.30;99.90;;;;;;4930795;29;20062;-87
2021/09/19 07:35:27;;;;;;;3.00;1.40;;;14.40;99.90;;;;;;4945494;29;20030;-87
2021/09/19 07:37:53;;;;;;;8.38;1.65;;;14.40;99.90;;;;;;4925878;29;20401;-86
2021/09/19 07:40:20;;;;;;;7.80;1.48;;;14.50;99.90;;;;;;4942826;29;20482;-86
2021/09/19 07:42:46;;;;;;;6.95;1.65;;;14.50;99.90;;;;;;4928555;29;20030;-87
2021/09/19 07:45:13;;;;;;;4.00;1.52;;;14.60;99.90;;;;;;4944592;29;20046;-86
2021/09/19 07:47:38;;;;;;;4.30;1.60;;;14.60;99.90;;;;;;4939260;29;20525;-86
2021/09/19 07:50:06;;;;;;;2.50;1.65;;;14.70;99.90;;;;;;4956661;29;20035;-86
2021/09/19 07:52:31;;;;;;;4.95;2.42;;;14.70;99.90;;;;;;4938860;28;20031;-86
2021/09/19 07:54:57;;;;;;;6.13;1.50;;;14.70;99.90;;;;;;4952928;29;20022;-86
2021/09/19 07:57:24;;;;;;;8.25;2.42;;;14.80;99.90;;;;;;4931802;29;20382;-87
2021/09/19 07:59:51;;;;;;;7.03;1.60;;;14.80;99.90;;;;;;4915964;29;20047;-86
2021/09/19 08:02:17;;;;;;;4.93;1.50;;;14.80;99.90;;;;;;4898771;29;20059;-86
2021/09/19 08:04:42;;;;;;;6.28;1.52;;;14.90;99.90;;;;;;4899842;29;20052;-87
2021/09/19 08:07:08;;;;;;;2.97;1.40;;;15.00;99.90;;;;;;4916020;29;20035;-86
2021/09/19 08:09:35;;;;;;;7.75;1.40;;;15.00;99.90;;;;;;4899345;29;20055;-86
2021/09/19 08:12:01;;;;;;;6.75;1.92;;;15.00;99.90;;;;;;4899080;29;20466;-87
2021/09/19 08:14:27;;;;;;;6.25;1.27;;;15.00;99.90;;;;;;4899830;29;20458;-87
2021/09/19 08:16:53;;;;;;;4.90;2.35;;;15.10;99.90;;;;;;4917765;29;20489;-87
2021/09/19 08:19:21;;;;;;;4.53;0.95;;;15.10;99.90;;;;;;4898786;29;20050;-87
2021/09/19 08:21:47;;;;;;;3.50;1.02;;;15.10;99.90;;;;;;4899389;29;20111;-87
2021/09/19 08:24:13;;;;;;;3.28;1.52;;;15.00;99.90;;;;;;4898849;29;20031;-87
2021/09/19 08:26:40;;;;;;;4.47;0.90;;;15.00;99.90;;;;;;4897844;29;20036;-87
2021/09/19 08:29:07;;;;;;;5.30;0.77;;;15.00;99.90;;;;;;4910140;29;20063;-88
2021/09/19 08:31:33;;;;;;;2.88;0.80;;;15.00;99.90;;;;;;4911280;29;20028;-87
2021/09/19 08:33:58;;;;;;;0.55;0.50;;;14.90;99.90;;;;;;4896289;29;20035;-88
2021/09/19 08:36:25;;;;;;;4.10;0.80;;;14.90;99.90;;;;;;4895501;29;20383;-87
2021/09/19 08:38:52;;;;;;;2.90;1.30;;;14.80;99.90;;;;;;4895064;29;20020;-87
2021/09/19 08:41:18;;;;;;;2.08;1.05;;;14.80;99.90;;;;;;4896899;29;20036;-89
2021/09/19 08:43:50;;;;;;;3.88;0.95;;;14.80;99.90;;;;;;4897382;29;20039;-86
2021/09/19 08:46:17;;;;;;;1.40;0.60;;;14.90;99.90;;;;;;4897228;29;20027;-89
2021/09/19 08:48:44;;;;;;;1.70;0.50;;;14.90;99.90;;;;;;4895673;29;20075;-88
2021/09/19 08:51:09;;;;;;;2.55;0.50;;;15.00;99.90;;;;;;4895804;29;20115;-88
2021/09/19 08:53:35;;;;;;;2.03;0.60;;;14.90;99.90;;;;;;4896044;29;20055;-88
2021/09/19 08:56:02;;;;;;;0.98;0.40;;;14.90;99.90;;;;;;4896473;29;20028;-87
2021/09/19 08:58:28;;;;;;;2.60;0.80;;;15.00;99.90;;;;;;4908556;29;20062;-87
2021/09/19 09:00:54;;;;;;;1.25;0.65;;;15.10;99.90;;;;;;4914254;29;20035;-87
2021/09/19 09:03:24;;;;;;;4.47;0.60;;;15.20;99.90;;;;;;4919365;29;20075;-87
2021/09/19 09:05:58;;;;;;;;;;;15.40;99.90;;;;;;4919456;29;20043;-88
2021/09/19 09:08:25;;;;;;;2.72;0.55;;;15.50;99.90;;;;;;4918771;29;20345;-88
2021/09/19 09:10:53;;;;;;;2.08;0.88;;;15.70;99.90;;;;;;4919476;29;20080;-87
2021/09/19 09:13:20;;;;;;;2.25;0.60;;;15.80;99.90;;;;;;4919315;29;20079;-88
2021/09/19 09:16:13;;;;;;;1.40;0.65;;;15.80;99.90;;;;;;4926687;29;20038;-89
2021/09/19 09:18:41;;;;;;;2.17;1.42;;;15.90;99.90;;;;;;4939777;29;20115;-88
2021/09/19 09:21:13;;;;;;;2.90;1.58;;;15.80;99.90;;;;;;4923726;29;20038;-89
2021/09/19 09:23:45;;;;;;;1.65;1.20;;;15.70;99.90;;;;;;4922835;29;20027;-88
2021/09/19 09:26:32;;;;;;;13.55;7.30;;;15.70;99.90;;;;;;4947938;29;20537;-88
2021/09/19 09:29:08;;;;;;;29.13;11.10;;;15.80;99.90;;;;;;4925555;29;20079;-88
2021/09/19 09:31:44;;;;;;;15.77;5.28;;;15.80;99.90;;;;;;4916064;29;20038;-89
2021/09/19 09:34:09;;;;;;;2.25;1.10;;;15.80;99.90;;;;;;4931856;29;20028;-88
2021/09/19 09:36:38;;;;;;;3.85;1.73;;;15.80;99.90;;;;;;4913904;29;20750;-89
2021/09/19 09:39:26;;;;;;;4.03;1.63;;;15.70;99.90;;;;;;4917026;29;20038;-88
2021/09/19 09:41:54;;;;;;;1.42;0.70;;;15.60;99.90;;;;;;4918256;29;20252;-88
2021/09/19 09:44:23;;;;;;;2.13;1.08;;;15.60;99.90;;;;;;4936360;29;20047;-89
2021/09/19 09:46:50;;;;;;;2.22;0.70;;;15.60;99.90;;;;;;4936120;29;20083;-88
2021/09/19 09:49:16;;;;;;;1.00;0.60;;;15.70;99.90;;;;;;4935977;29;20054;-89
2021/09/19 09:51:45;;;;;;;1.85;0.60;;;15.70;99.90;;;;;;4919387;29;20046;-88
2021/09/19 09:54:15;;;;;;;2.75;0.70;;;15.80;99.90;;;;;;4919270;29;20043;-88
2021/09/19 09:56:44;;;;;;;4.88;2.15;;;15.90;99.90;;;;;;4919293;29;20103;-89
2021/09/19 09:59:11;;;;;;;19.02;8.13;;;16.20;99.90;;;;;;4919258;29;20058;-88
2021/09/19 10:01:39;;;;;;;1.27;0.77;;;16.40;99.90;;;;;;4919354;29;20110;-87
2021/09/19 10:04:05;;;;;;;2.65;0.75;;;16.70;99.90;;;;;;4919233;29;20056;-89
2021/09/19 10:06:31;;;;;;;1.75;0.75;;;16.90;99.90;;;;;;4919404;29;20088;-88
2021/09/19 10:08:58;;;;;;;2.50;0.98;;;17.30;99.90;;;;;;4935836;29;20057;-88
2021/09/19 10:11:25;;;;;;;6.22;3.67;;;17.60;99.90;;;;;;4918654;29;20429;-88
2021/09/19 10:13:51;;;;;;;8.63;3.63;;;17.90;99.90;;;;;;4919042;29;20095;-88
2021/09/19 10:16:17;;;;;;;2.35;1.13;;;18.20;99.90;;;;;;4918706;29;20028;-88
2021/09/19 10:18:49;;;;;;;3.63;0.80;;;18.30;99.90;;;;;;4919180;29;20075;-88
2021/09/19 10:21:18;;;;;;;3.05;1.40;;;18.50;99.90;;;;;;4916429;29;20027;-88
2021/09/19 10:23:44;;;;;;;1.33;0.60;;;18.70;99.90;;;;;;4918791;29;20020;-88
2021/09/19 10:26:12;;;;;;;1.17;0.52;;;19.00;99.90;;;;;;4918824;29;20119;-88
2021/09/19 10:28:41;;;;;;;2.70;1.05;;;19.10;99.90;;;;;;4918702;29;20513;-88
2021/09/19 10:31:15;;;;;;;1.92;0.85;;;19.30;99.90;;;;;;4918775;29;20039;-88
2021/09/19 10:33:43;;;;;;;2.90;0.70;;;19.50;99.90;;;;;;4918758;29;20220;-90
2021/09/19 10:36:30;;;;;;;2.95;1.25;;;19.50;99.90;;;;;;4918787;29;20039;-87
2021/09/19 10:39:38;;;;;;;1.55;0.60;;;19.60;99.40;;;;;;4918356;29;20104;-90
2021/09/19 10:42:27;;;;;;;2.30;0.82;;;19.50;98.50;;;;;;4861553;29;20364;-88
2021/09/19 10:44:56;;;;;;;1.05;0.50;;;19.50;98.20;;;;;;4877298;29;20041;-88
2021/09/19 10:47:44;;;;;;;2.58;0.88;;;19.60;98.30;;;;;;4877222;29;20063;-88
2021/09/19 10:50:22;;;;;;;9.65;4.63;;;19.80;97.80;;;;;;4864857;29;20484;-88
2021/09/19 10:52:52;;;;;;;3.08;0.90;;;20.10;97.50;;;;;;4865721;29;20500;-88
2021/09/19 10:55:19;;;;;;;4.43;1.33;;;20.50;96.20;;;;;;4865497;29;20029;-90
2021/09/19 10:57:59;;;;;;;3.00;0.80;;;20.60;95.50;;;;;;4880627;29;20776;-89
2021/09/19 11:00:26;;;;;;;5.82;1.23;;;20.80;94.00;;;;;;4865425;29;20047;-90
2021/09/19 11:03:02;;;;;;;3.92;1.10;;;20.90;93.30;;;;;;4880567;29;20585;-90
2021/09/19 11:05:32;;;;;;;2.03;0.82;;;21.00;92.60;;;;;;4880727;29;20116;-89
2021/09/19 11:08:06;;;;;;;5.60;1.27;;;21.10;92.00;;;;;;4864881;29;20029;-90
2021/09/19 11:10:55;;;;;;;2.85;1.15;;;21.30;91.40;;;;;;4879961;29;20498;-88
2021/09/19 11:13:29;;;;;;;4.47;1.08;;;21.40;90.80;;;;;;4880126;29;20033;-88
2021/09/19 11:16:04;;;;;;;4.05;1.00;;;21.40;90.30;;;;;;4892764;29;20051;-88
2021/09/19 11:18:37;;;;;;;3.97;1.52;;;21.50;90.10;;;;;;4921892;29;20043;-90
2021/09/19 11:21:22;;;;;;;5.15;0.93;;;21.50;89.70;;;;;;4922132;29;20034;-87
2021/09/19 11:23:49;;;;;;;7.07;1.17;;;21.40;89.20;;;;;;4938731;29;20027;-90
2021/09/19 11:26:20;;;;;;;9.25;1.45;;;21.30;89.10;;;;;;4938432;29;20032;-87
2021/09/19 11:28:47;;;;;;;8.55;1.75;;;21.60;88.70;;;;;;4905890;29;20047;-91
2021/09/19 11:31:17;;;;;;;5.97;2.17;;;21.90;87.60;;;;;;4921401;29;20032;-86
2021/09/19 11:33:44;;;;;;;7.53;2.28;;;22.10;85.90;;;;;;4921092;29;20042;-90
2021/09/19 11:36:16;;;;;;;5.47;2.40;;;22.30;84.90;;;;;;4920944;29;20062;-89
2021/09/19 11:38:49;;;;;;;5.43;2.03;;;22.50;83.10;;;;;;4918991;29;20024;-88
2021/09/19 11:41:16;;;;;;;4.03;2.00;;;22.70;81.70;;;;;;4920840;29;20031;-87
2021/09/19 11:43:45;;;;;;;5.20;1.95;;;23.00;80.70;;;;;;4921048;29;20051;-87
2021/09/19 11:46:19;;;;;;;3.72;1.80;;;23.10;78.20;;;;;;4920786;29;20046;-87
2021/09/19 11:48:45;;;;;;;3.67;1.70;;;23.40;77.00;;;;;;4921421;29;20028;-88
2021/09/19 11:51:15;;;;;;;4.78;1.70;;;23.60;75.80;;;;;;4938017;29;20055;-87
2021/09/19 11:53:46;;;;;;;6.70;1.63;;;23.90;75.20;;;;;;4920851;29;20023;-86
2021/09/19 11:56:14;;;;;;;2.78;1.50;;;23.90;73.50;;;;;;4921025;29;20043;-89
2021/09/19 11:58:39;;;;;;;6.22;1.77;;;23.90;73.20;;;;;;4921173;29;20054;-89
2021/09/19 12:01:05;;;;;;;4.35;1.50;;;24.10;72.90;;;;;;4937444;29;20035;-88
2021/09/19 12:03:31;;;;;;;6.30;1.73;;;24.10;71.90;;;;;;4921199;29;20055;-90
2021/09/19 12:06:01;;;;;;;7.43;2.13;;;24.00;71.70;;;;;;4938268;29;20034;-89
2021/09/19 12:08:30;;;;;;;3.38;1.65;;;24.10;71.50;;;;;;4921144;29;20050;-91
2021/09/19 12:10:57;;;;;;;5.28;1.95;;;24.10;70.90;;;;;;4920538;29;20032;-90
2021/09/19 12:13:25;;;;;;;2.88;1.17;;;24.10;70.90;;;;;;4921401;29;20034;-89
2021/09/19 12:15:57;;;;;;;4.85;1.20;;;24.20;69.90;;;;;;4921373;29;20049;-90
2021/09/19 12:18:32;;;;;;;3.05;1.17;;;24.20;68.70;;;;;;4921690;29;20032;-91
2021/09/19 12:21:07;;;;;;;4.05;0.80;;;24.40;68.20;;;;;;4921174;29;20126;-91
2021/09/19 12:23:49;;;;;;;4.97;1.33;;;24.40;66.80;;;;;;4921006;29;20075;-90
2021/09/19 12:26:22;;;;;;;7.22;2.35;;;24.30;66.30;;;;;;4920991;29;20027;-90
2021/09/19 12:28:53;;;;;;;3.88;1.63;;;24.10;65.50;;;;;;4920437;29;20034;-90
2021/09/19 12:32:00;;;;;;;4.47;1.67;;;24.20;65.40;;;;;;4916017;29;20448;-89
2021/09/19 12:34:26;;;;;;;4.32;1.20;;;24.50;64.70;;;;;;4878435;29;20098;-89
2021/09/19 12:36:54;;;;;;;2.78;1.00;;;24.70;63.90;;;;;;4862739;29;20086;-89
2021/09/19 12:39:20;;;;;;;3.72;1.08;;;24.90;63.20;;;;;;4878803;29;20041;-89
2021/09/19 12:41:50;;;;;;;2.20;0.95;;;25.00;62.80;;;;;;4862920;29;20036;-90
2021/09/19 12:44:17;;;;;;;;;;;25.40;62.70;;;;;;4863229;29;20530;-90